• Join FlightAware (Why Join?)
  • Login
  • US Flag 
11:07AM EDT


 

Airport Tracker/Info


-or-


 

Live Flight TrackerFlight Track Log ✈ AWI4029 ✈ 17-Jun-2014 ✈ KART - KPHL

Flight Track Log - Related Links

Times and Time Zones

All times are in EDT time to prevent confusion due to time zone crossing. See the AWI4029 flight status page for this flight to view local times or setup timezone preferences in your user account.

Time Position Orientation Groundspeed Altitude Reporting Facility
EDT Latitude Longitude Course Direction KTS MPH feet Rate Location/Type
01:30PM 43.9869 -76.0497 227° Southwest 158 182 1,500  Level Boston Center
01:31PM 43.9692 -76.0761 227° Southwest 176 203 3,100 2,280 Climbing Boston Center
01:32PM 43.9169 -76.0856 187° South 224 258 5,200 2,340 Climbing Boston Center
01:33PM 43.8417 -76.0961 186° South 249 287 8,000 2,460 Climbing Boston Center
01:34PM 43.7628 -76.1106 188° South 267 307 10,400 2,460 Climbing Boston Center
01:35PM 43.6750 -76.1239 186° South 297 342 13,000 2,400 Climbing Boston Center
01:36PM 43.5872 -76.1389 187° South 313 360 15,300 1,980 Climbing Boston Center
01:37PM 43.4961 -76.1536 187° South 325 374 17,100 1,500 Climbing Boston Center
01:38PM 43.4017 -76.1678 186° South 334 384 18,500 1,440 Climbing Boston Center
01:39PM 43.3036 -76.1831 186° South 348 400 20,100 1,560 Climbing Boston Center
01:40PM 43.1836 -76.2019 187° South 359 413 21,800 1,380 Climbing Boston Center
01:41PM 43.0767 -76.1994 179° South 382 440 23,000 1,080 Climbing Boston Center
01:42PM 42.9733 -76.1922 177° South 376 433 24,000 480 Climbing Boston Center
01:43PM 42.8664 -76.1856 177° South 382 440 24,000 -600 Level Boston Center
01:44PM 42.7597 -76.1778 177° South 382 440 22,800 -1,200 Descending Boston Center
01:45PM 42.6531 -76.1714 177° South 382 440 21,600 -1,200 Descending Boston Center
01:46PM 42.5422 -76.1636 177° South 396 456 20,400 -1,260 Descending Boston Center
01:47PM 42.4150 -76.1544 177° South 397 457 19,000 -1,200 Descending Boston Center
01:48PM 42.3044 -76.1475 177° South 397 457 18,000 -780 Descending Boston Center
01:49PM 42.1769 -76.1378 177° South 400 460 17,400 -900 Descending New York Center
01:50PM 42.0728 -76.0931 162° South 395 455 16,100 -1,260 Descending New York Center
01:51PM 41.9725 -76.0489 162° South 389 448 14,900 -1,260 Descending New York Center
01:52PM 41.8850 -76.0028 159° South 384 442 13,600 -1,320 Descending New York Center
01:53PM 41.7894 -75.9536 159° South 376 433 12,300 -1,320 Descending New York Center
01:54PM 41.6856 -75.9011 159° South 371 427 11,000 -660 Descending New York Center
01:55PM 41.5878 -75.8519 159° South 371 427 11,000  Level New York Center
01:56PM 41.5042 -75.8069 158° South 365 420 11,000  Level New York Center
01:57PM 41.4206 -75.7647 159° South 350 403 11,000  Level New York Center
01:58PM 41.3342 -75.7417 169° South 330 380 11,000  Level New York Center
01:59PM 41.2375 -75.7594 188° South 309 356 11,000  Level New York Center
02:00PM 41.1558 -75.7697 185° South 309 356 11,000  Level New York Center
02:01PM 41.0803 -75.7836 188° South 314 361 11,000  Level New York Center
02:02PM 40.9858 -75.8014 188° South 314 361 11,000  Level New York Center
02:03PM 40.9083 -75.8094 184° South 314 361 11,000 -240 Level New York Center
02:04PM 40.8233 -75.7508 152° Southeast 303 349 10,600 -540 Descending New York Center
02:05PM 40.7508 -75.6908 148° Southeast 308 354 10,000 -300 Descending New York Center
02:06PM 40.6764 -75.6253 146° Southeast 314 361 10,000  Level New York Center
02:07PM 40.6081 -75.5658 147° Southeast 319 367 10,000  Level New York Center
02:08PM 40.5353 -75.5061 148° Southeast 313 360 10,000 -60 Level New York Center
02:09PM 40.4547 -75.4378 147° Southeast 313 360 9,900 -960 Descending New York Center
02:10PM 40.3728 -75.4022 162° South 306 352 8,100 -1,800 Descending New York Center
02:11PM 40.3028 -75.3811 167° South 295 339 6,300 -1,680 Descending New York Center
02:12PM 40.2403 -75.3256 146° Southeast 282 325 4,800 -1,200 Descending New York Center
02:13PM 40.1756 -75.2722 148° Southeast 257 296 4,000 -420 Descending New York Center
02:14PM 40.1203 -75.2469 161° South 220 253 4,000  Level New York Center
02:15PM 40.0669 -75.2219 160° South 210 242 4,000  Level New York Center
02:16PM 40.0178 -75.1997 161° South 205 236 4,000  Level New York Center
02:17PM 39.9583 -75.1742 162° South 205 236 4,000  Level New York Center
02:18PM 39.9069 -75.1522 162° South 205 236 4,000 -120 Level New York Center
02:19PM 39.8456 -75.1211 159° South 205 236 3,800 -600 Descending New York Center
02:20PM 39.8006 -75.1022 162° South 199 229 2,800 -900 Descending New York Center
02:21PM 39.7833 -75.1667 251° West 170 196 2,000 -720 Descending Philadelphia TRACON
02:23PM 39.8167 -75.2000 322° Northwest 162 186 1,300 -840 Descending Philadelphia TRACON
02:23PM 39.8500 -75.2167 339° North 141 162 400 -1,020 Descending Philadelphia TRACON